createdAt,value
2018-03-29T00:00:52.174Z,33.77
2018-03-29T00:03:18.129Z,35.40
2018-03-29T00:05:44.074Z,35.40
2018-03-29T00:08:10.030Z,36.40
2018-03-29T00:10:35.981Z,35.40
2018-03-29T00:13:01.941Z,36.67
2018-03-29T00:15:27.898Z,34.37
2018-03-29T00:17:53.843Z,36.10
2018-03-29T00:20:34.758Z,36.07
2018-03-29T00:23:00.717Z,35.17
2018-03-29T00:25:26.665Z,37.07
2018-03-29T00:27:52.625Z,37.60
2018-03-29T00:30:18.593Z,38.07
2018-03-29T00:32:44.548Z,36.30
2018-03-29T00:35:10.492Z,36.23
2018-03-29T00:37:36.438Z,37.03
2018-03-29T00:40:02.409Z,35.30
2018-03-29T00:42:28.353Z,35.93
2018-03-29T00:44:54.330Z,35.23
2018-03-29T00:47:20.295Z,37.17
2018-03-29T00:49:46.269Z,36.00
2018-03-29T00:52:12.250Z,36.43
2018-03-29T00:54:38.243Z,35.10
2018-03-29T00:57:04.220Z,35.67
2018-03-29T00:59:30.217Z,35.60
2018-03-29T01:01:56.190Z,35.70
2018-03-29T01:04:22.142Z,35.60
2018-03-29T01:06:48.114Z,35.97
2018-03-29T01:09:14.082Z,34.10
2018-03-29T01:11:40.053Z,33.97
2018-03-29T01:14:06.032Z,34.07
2018-03-29T01:16:32.010Z,32.43
2018-03-29T01:18:57.982Z,32.53
2018-03-29T01:21:23.978Z,30.13
2018-03-29T01:23:49.924Z,31.50
2018-03-29T01:26:15.909Z,32.17
2018-03-29T01:28:41.859Z,30.63
2018-03-29T01:31:07.810Z,31.10
2018-03-29T01:33:33.760Z,31.10
2018-03-29T01:35:59.697Z,31.30
2018-03-29T01:38:25.662Z,32.43
2018-03-29T01:40:51.628Z,32.27
2018-03-29T01:43:17.610Z,32.17
2018-03-29T01:45:43.600Z,31.63
2018-03-29T01:48:09.563Z,30.47
2018-03-29T01:50:35.530Z,31.70
2018-03-29T01:53:01.493Z,31.57
2018-03-29T01:55:27.449Z,32.47
2018-03-29T01:57:53.441Z,32.20
2018-03-29T02:00:19.410Z,32.43
2018-03-29T02:02:45.389Z,31.63
2018-03-29T02:05:11.357Z,32.27
2018-03-29T02:07:37.309Z,33.73
2018-03-29T02:10:03.269Z,33.97
2018-03-29T02:12:29.225Z,34.60
2018-03-29T02:14:55.167Z,35.83
2018-03-29T02:17:21.115Z,33.60
2018-03-29T02:19:47.075Z,35.17
2018-03-29T02:22:13.041Z,34.40
2018-03-29T02:24:38.992Z,35.63
2018-03-29T02:27:04.989Z,37.30
2018-03-29T02:29:30.925Z,36.90
2018-03-29T02:31:56.900Z,36.67
2018-03-29T02:34:22.846Z,35.33
2018-03-29T02:36:48.795Z,36.20
2018-03-29T02:39:14.749Z,37.07
2018-03-29T02:41:40.703Z,36.70
2018-03-29T02:44:06.660Z,36.77
2018-03-29T02:46:32.634Z,36.80
2018-03-29T02:48:58.586Z,37.93
2018-03-29T02:51:24.548Z,37.43
2018-03-29T02:53:50.518Z,38.67
2018-03-29T02:56:16.525Z,37.53
2018-03-29T02:58:42.465Z,38.70
2018-03-29T03:01:08.421Z,37.67
2018-03-29T03:03:34.376Z,38.63
2018-03-29T03:06:00.333Z,37.53
2018-03-29T03:08:26.285Z,37.67
2018-03-29T03:10:52.406Z,37.83
2018-03-29T03:13:18.353Z,36.60
2018-03-29T03:15:44.319Z,37.37
2018-03-29T03:18:10.293Z,37.93
2018-03-29T03:20:36.259Z,37.93
2018-03-29T03:23:02.233Z,35.30
2018-03-29T03:25:43.194Z,34.40
2018-03-29T03:28:09.134Z,32.93
2018-03-29T03:30:35.102Z,32.00
2018-03-29T03:33:01.061Z,32.80
2018-03-29T03:35:27.001Z,29.20
2018-03-29T03:37:52.961Z,28.83
2018-03-29T03:40:18.911Z,27.07
2018-03-29T03:42:44.881Z,27.53
2018-03-29T03:45:10.847Z,27.63
2018-03-29T03:47:36.796Z,21.97
2018-03-29T03:50:02.780Z,23.47
2018-03-29T03:52:28.750Z,21.90
2018-03-29T03:54:54.725Z,22.10
2018-03-29T03:57:20.698Z,20.90
2018-03-29T03:59:46.677Z,20.07
2018-03-29T04:02:12.647Z,18.80
2018-03-29T04:04:38.611Z,18.73
2018-03-29T04:07:04.558Z,16.23
2018-03-29T04:09:30.500Z,15.70
2018-03-29T04:11:56.466Z,15.37
2018-03-29T04:14:22.420Z,15.57
2018-03-29T04:16:48.369Z,13.87
2018-03-29T04:19:14.338Z,13.50
2018-03-29T04:21:40.314Z,13.10
2018-03-29T04:24:06.295Z,12.80
2018-03-29T04:26:32.249Z,13.00
2018-03-29T04:28:58.197Z,11.53
2018-03-29T04:31:24.196Z,12.30
2018-03-29T04:33:50.166Z,12.33
2018-03-29T04:36:16.138Z,12.33
2018-03-29T04:38:42.108Z,12.57
2018-03-29T04:41:08.084Z,12.90
2018-03-29T04:43:34.029Z,12.70
2018-03-29T04:46:00.007Z,11.83
2018-03-29T04:48:25.955Z,12.53
2018-03-29T04:50:51.896Z,13.20
2018-03-29T04:53:17.874Z,13.00
2018-03-29T04:55:43.837Z,12.83
2018-03-29T04:58:09.788Z,12.87
2018-03-29T05:00:35.745Z,11.37
2018-03-29T05:03:01.744Z,12.30
2018-03-29T05:05:27.702Z,11.37
2018-03-29T05:07:53.653Z,11.90
2018-03-29T05:10:19.626Z,12.07
2018-03-29T05:12:45.588Z,13.33
2018-03-29T05:15:11.546Z,11.80
2018-03-29T05:17:37.520Z,13.10
2018-03-29T05:20:03.481Z,12.40
2018-03-29T05:22:29.459Z,10.57
2018-03-29T05:24:55.404Z,10.33
2018-03-29T05:27:25.204Z,9.73
2018-03-29T05:29:51.174Z,9.20
2018-03-29T05:32:17.163Z,8.43
2018-03-29T05:34:43.120Z,7.60
2018-03-29T05:37:09.065Z,7.90
2018-03-29T05:39:35.036Z,7.33
2018-03-29T05:42:01.030Z,6.57
2018-03-29T05:44:26.998Z,6.20
2018-03-29T05:46:52.992Z,6.23
2018-03-29T05:49:18.930Z,6.07
2018-03-29T05:51:44.889Z,6.07
2018-03-29T05:54:10.839Z,5.87
2018-03-29T05:56:36.794Z,6.30
2018-03-29T05:59:02.754Z,7.00
2018-03-29T06:01:28.718Z,7.10
2018-03-29T06:03:54.685Z,6.53
2018-03-29T06:06:20.652Z,6.43
2018-03-29T06:08:46.644Z,5.93
2018-03-29T06:11:12.630Z,5.40
2018-03-29T06:13:39.657Z,5.43
2018-03-29T06:16:05.637Z,5.40
2018-03-29T06:18:31.609Z,5.23
2018-03-29T06:20:57.584Z,4.80
2018-03-29T06:23:23.647Z,4.90
2018-03-29T06:25:49.590Z,4.60
2018-03-29T06:28:15.541Z,4.40
2018-03-29T06:30:41.494Z,4.70
2018-03-29T06:33:07.437Z,4.63
2018-03-29T06:35:33.454Z,4.00
2018-03-29T06:37:59.425Z,4.20
2018-03-29T06:40:25.393Z,4.20
2018-03-29T06:42:51.353Z,4.33
2018-03-29T06:45:17.316Z,4.57
2018-03-29T06:47:43.265Z,4.30
2018-03-29T06:50:09.230Z,4.43
2018-03-29T06:52:35.178Z,4.20
2018-03-29T06:55:01.141Z,3.80
2018-03-29T06:57:27.093Z,4.07
2018-03-29T06:59:53.057Z,3.97
2018-03-29T07:02:19.057Z,3.90
2018-03-29T07:04:45.034Z,3.90
2018-03-29T07:07:10.998Z,3.83
2018-03-29T07:09:36.970Z,3.87
2018-03-29T07:12:02.958Z,3.10
2018-03-29T07:14:28.926Z,3.70
2018-03-29T07:16:54.930Z,3.87
2018-03-29T07:19:20.898Z,3.73
2018-03-29T07:21:46.847Z,4.23
2018-03-29T07:24:12.814Z,3.80
2018-03-29T07:26:38.769Z,3.50
2018-03-29T07:29:04.753Z,3.33
2018-03-29T07:31:30.737Z,3.30
2018-03-29T07:33:56.695Z,3.43
2018-03-29T07:36:22.744Z,3.33
2018-03-29T07:38:48.705Z,3.10
2018-03-29T07:41:14.667Z,3.33
2018-03-29T07:43:40.624Z,3.10
2018-03-29T07:46:06.613Z,3.77
2018-03-29T07:48:47.538Z,3.20
2018-03-29T07:51:13.505Z,3.03
2018-03-29T07:53:39.531Z,2.80
2018-03-29T07:56:05.535Z,3.00
2018-03-29T07:58:31.481Z,3.03
2018-03-29T08:00:57.461Z,2.87
2018-03-29T08:03:23.423Z,2.57
2018-03-29T08:05:49.385Z,2.70
2018-03-29T08:08:15.378Z,2.77
2018-03-29T08:10:41.385Z,3.67
2018-03-29T08:13:07.345Z,3.07
2018-03-29T08:15:33.298Z,2.90
2018-03-29T08:17:59.256Z,2.83
2018-03-29T08:20:25.344Z,3.00
2018-03-29T08:22:51.313Z,2.83
2018-03-29T08:25:17.266Z,2.60
2018-03-29T08:27:43.239Z,2.50
2018-03-29T08:30:09.204Z,2.70
2018-03-29T08:32:35.175Z,2.50
2018-03-29T08:35:01.127Z,2.70
2018-03-29T08:37:27.101Z,2.60
2018-03-29T08:39:53.061Z,2.53
2018-03-29T08:42:19.019Z,2.60
2018-03-29T08:44:45.000Z,2.50
2018-03-29T08:47:10.949Z,3.00
2018-03-29T08:49:36.897Z,3.13
2018-03-29T08:52:02.868Z,2.40
2018-03-29T08:54:28.833Z,2.53
2018-03-29T08:56:54.827Z,2.80
2018-03-29T08:59:20.784Z,2.97
2018-03-29T09:01:46.757Z,2.87
2018-03-29T09:04:12.786Z,2.90
2018-03-29T09:06:38.749Z,2.97
2018-03-29T09:09:04.726Z,3.13
2018-03-29T09:11:30.673Z,3.10
2018-03-29T09:13:56.616Z,3.40
2018-03-29T09:16:22.573Z,3.10
2018-03-29T09:18:48.530Z,3.77
2018-03-29T09:21:14.512Z,3.57
2018-03-29T09:23:40.473Z,3.20
2018-03-29T09:26:06.433Z,3.70
2018-03-29T09:28:32.417Z,3.87
2018-03-29T09:30:58.413Z,3.50
2018-03-29T09:33:24.373Z,3.70
2018-03-29T09:35:50.352Z,3.90
2018-03-29T09:38:16.311Z,4.20
2018-03-29T09:40:42.270Z,4.07
2018-03-29T09:43:08.248Z,4.00
2018-03-29T09:45:34.233Z,4.20
2018-03-29T09:48:00.205Z,4.63
2018-03-29T09:50:26.179Z,4.53
2018-03-29T09:52:52.144Z,3.90
2018-03-29T09:55:18.104Z,3.97
2018-03-29T09:57:44.106Z,3.67
2018-03-29T10:00:10.079Z,3.50
2018-03-29T10:02:37.084Z,3.43
2018-03-29T10:05:03.089Z,3.17
2018-03-29T10:07:33.930Z,2.70
2018-03-29T10:09:59.900Z,2.70
2018-03-29T10:12:25.864Z,3.10
2018-03-29T10:14:51.846Z,2.40
2018-03-29T10:17:17.905Z,2.63
2018-03-29T10:19:43.877Z,2.97
2018-03-29T10:22:09.898Z,3.10
2018-03-29T10:24:36.206Z,3.20
2018-03-29T10:27:02.185Z,3.10
2018-03-29T10:29:28.146Z,2.93
2018-03-29T10:31:54.134Z,2.60
2018-03-29T10:34:20.097Z,2.60
2018-03-29T10:36:46.067Z,2.70
2018-03-29T10:39:12.033Z,2.87
2018-03-29T10:41:37.981Z,2.77
2018-03-29T10:44:03.971Z,2.73
2018-03-29T10:49:26.117Z,2.93
2018-03-29T10:51:53.646Z,2.80
2018-03-29T10:54:21.238Z,2.90
2018-03-29T10:56:48.754Z,2.63
2018-03-29T10:59:16.274Z,2.57
2018-03-29T11:01:43.919Z,2.70
2018-03-29T11:04:11.505Z,2.47
2018-03-29T11:06:39.038Z,2.60
2018-03-29T11:09:06.593Z,2.73
2018-03-29T11:11:34.114Z,2.70
2018-03-29T11:14:01.634Z,2.63
2018-03-29T11:16:29.516Z,2.93
2018-03-29T11:18:57.048Z,2.90
2018-03-29T11:21:24.610Z,2.70
2018-03-29T11:23:52.121Z,2.80
2018-03-29T11:26:19.640Z,2.47
2018-03-29T11:28:47.282Z,3.30
2018-03-29T11:31:14.797Z,2.73
2018-03-29T11:33:42.345Z,3.20
2018-03-29T11:36:09.899Z,3.10
2018-03-29T11:38:37.433Z,3.40
2018-03-29T11:41:04.953Z,3.60
2018-03-29T11:43:32.472Z,3.70
2018-03-29T11:45:59.998Z,3.80
2018-03-29T11:48:27.521Z,3.63
2018-03-29T11:50:55.034Z,3.67
2018-03-29T11:53:22.555Z,3.60
2018-03-29T11:55:50.239Z,3.73
2018-03-29T11:58:17.815Z,3.50
2018-03-29T12:00:45.384Z,3.93
2018-03-29T12:03:12.922Z,3.63
2018-03-29T12:05:40.441Z,3.60
2018-03-29T12:08:08.050Z,3.57
2018-03-29T12:10:35.576Z,3.80
2018-03-29T12:13:03.111Z,3.27
2018-03-29T12:15:30.641Z,3.60
2018-03-29T12:17:58.221Z,3.70
2018-03-29T12:20:25.748Z,4.00
2018-03-29T12:22:53.270Z,3.30
2018-03-29T12:25:20.990Z,3.53
2018-03-29T12:27:48.553Z,3.30
2018-03-29T12:30:16.086Z,3.40
2018-03-29T12:32:43.762Z,3.53
2018-03-29T12:35:11.322Z,3.00
2018-03-29T12:37:38.825Z,3.40
2018-03-29T12:40:06.422Z,3.50
2018-03-29T12:42:33.983Z,3.63
2018-03-29T12:45:01.520Z,3.70
2018-03-29T12:47:29.070Z,3.67
2018-03-29T12:49:56.680Z,3.73
2018-03-29T12:52:24.308Z,3.80
2018-03-29T12:55:03.558Z,4.00
2018-03-29T12:57:43.110Z,4.37
2018-03-29T13:00:10.664Z,4.27
2018-03-29T13:02:38.216Z,4.60
2018-03-29T13:05:05.852Z,4.80
2018-03-29T13:07:33.416Z,4.87
2018-03-29T13:10:00.986Z,5.17
2018-03-29T13:12:28.513Z,5.93
2018-03-29T13:14:56.025Z,5.30
2018-03-29T13:17:23.546Z,5.67
2018-03-29T13:19:51.139Z,6.27
2018-03-29T13:22:18.672Z,6.17
2018-03-29T13:24:46.228Z,6.00
2018-03-29T13:27:13.822Z,5.90
2018-03-29T13:29:41.383Z,6.83
2018-03-29T13:32:08.914Z,6.50
2018-03-29T13:34:36.454Z,6.87
2018-03-29T13:37:04.241Z,6.90
2018-03-29T13:39:31.826Z,6.60
2018-03-29T13:41:59.396Z,6.10
2018-03-29T13:44:26.974Z,6.53
2018-03-29T13:46:54.508Z,6.30
2018-03-29T13:49:22.033Z,6.80
2018-03-29T13:51:49.562Z,6.37
2018-03-29T13:54:17.177Z,7.27
2018-03-29T13:56:44.690Z,7.00
2018-03-29T13:59:12.238Z,7.17
2018-03-29T14:01:39.932Z,7.43
2018-03-29T14:04:07.629Z,7.23
2018-03-29T14:06:35.162Z,7.00
2018-03-29T14:09:02.685Z,7.23
2018-03-29T14:11:30.207Z,8.03
2018-03-29T14:13:57.760Z,7.47
2018-03-29T14:16:25.292Z,7.97
2018-03-29T14:18:52.810Z,8.30
2018-03-29T14:21:20.394Z,8.73
2018-03-29T14:23:48.073Z,10.97
2018-03-29T14:26:15.653Z,10.00
2018-03-29T14:28:43.208Z,10.33
2018-03-29T14:31:10.724Z,10.20
2018-03-29T14:33:38.349Z,10.87
2018-03-29T14:36:05.874Z,10.13
2018-03-29T14:38:33.468Z,10.23
2018-03-29T14:41:01.049Z,10.10
2018-03-29T14:43:28.777Z,10.13
2018-03-29T14:45:56.456Z,10.10
2018-03-29T14:48:24.023Z,9.50
2018-03-29T14:50:51.558Z,9.77
2018-03-29T14:53:19.081Z,10.40
2018-03-29T14:55:46.730Z,10.00
2018-03-29T14:58:14.239Z,9.37
2018-03-29T15:00:41.810Z,9.90
2018-03-29T15:03:09.375Z,10.23
2018-03-29T15:05:37.038Z,10.10
2018-03-29T15:08:04.604Z,10.67
2018-03-29T15:10:32.142Z,10.63
2018-03-29T15:12:59.653Z,11.23
2018-03-29T15:15:27.173Z,10.17
2018-03-29T15:17:54.723Z,10.60
2018-03-29T15:20:22.277Z,10.83
2018-03-29T15:22:49.922Z,11.97
2018-03-29T15:25:17.893Z,12.20
2018-03-29T15:27:45.470Z,12.70
2018-03-29T15:30:13.020Z,12.70
2018-03-29T15:32:40.540Z,12.77
2018-03-29T15:35:08.061Z,12.70
2018-03-29T15:37:35.624Z,12.13
2018-03-29T15:40:03.149Z,12.70
2018-03-29T15:42:30.669Z,13.13
2018-03-29T15:44:58.261Z,12.57
2018-03-29T15:47:25.866Z,12.93
2018-03-29T15:49:53.410Z,13.37
2018-03-29T15:52:21.089Z,12.43
2018-03-29T15:54:48.613Z,12.77
2018-03-29T15:57:16.180Z,13.17
2018-03-29T15:59:43.696Z,12.70
2018-03-29T16:02:11.210Z,12.17
2018-03-29T16:04:38.741Z,12.63
2018-03-29T16:07:06.356Z,13.50
2018-03-29T16:09:34.054Z,13.53
2018-03-29T16:12:01.622Z,13.37
2018-03-29T16:14:29.156Z,14.80
2018-03-29T16:16:56.687Z,13.70
2018-03-29T16:19:24.233Z,13.90
2018-03-29T16:21:51.766Z,14.47
2018-03-29T16:24:19.289Z,13.60
2018-03-29T16:26:46.927Z,13.77
2018-03-29T16:29:14.441Z,13.43
2018-03-29T16:31:41.970Z,14.53
2018-03-29T16:34:09.489Z,14.10
2018-03-29T16:36:37.022Z,13.53
2018-03-29T16:39:04.549Z,13.20
2018-03-29T16:41:32.185Z,13.53
2018-03-29T16:43:59.745Z,13.07
2018-03-29T16:46:27.269Z,13.73
2018-03-29T16:48:54.799Z,13.17
2018-03-29T16:51:22.326Z,13.20
2018-03-29T16:53:49.881Z,13.20
2018-03-29T16:56:17.413Z,12.90
2018-03-29T16:58:44.998Z,13.07
2018-03-29T17:01:12.521Z,13.27
2018-03-29T17:03:40.055Z,13.67
2018-03-29T17:06:07.691Z,13.23
2018-03-29T17:08:35.250Z,12.80
2018-03-29T17:11:02.777Z,13.23
2018-03-29T17:13:30.369Z,12.57
2018-03-29T17:15:57.893Z,12.53
2018-03-29T17:18:25.421Z,12.70
2018-03-29T17:20:53.046Z,11.77
2018-03-29T17:23:20.605Z,11.93
2018-03-29T17:25:48.129Z,11.97
2018-03-29T17:28:15.646Z,11.57
2018-03-29T17:30:43.553Z,12.00
2018-03-29T17:33:11.050Z,10.60
2018-03-29T17:35:38.624Z,11.03
2018-03-29T17:38:06.167Z,11.40
2018-03-29T17:40:33.700Z,10.83
2018-03-29T17:43:01.233Z,10.00
2018-03-29T17:45:28.765Z,9.20
2018-03-29T17:47:56.460Z,9.17
2018-03-29T17:50:23.953Z,8.77
2018-03-29T17:52:51.486Z,7.53
2018-03-29T17:55:19.013Z,8.30
2018-03-29T17:57:46.856Z,9.67
2018-03-29T18:00:14.412Z,9.50
2018-03-29T18:02:42.080Z,10.17
2018-03-29T18:05:09.945Z,12.20
2018-03-29T18:07:37.499Z,10.50
2018-03-29T18:10:06.014Z,11.40
2018-03-29T18:12:33.553Z,10.27
2018-03-29T18:15:01.079Z,10.37
2018-03-29T18:17:28.593Z,11.00
2018-03-29T18:19:56.133Z,10.03
2018-03-29T18:22:23.654Z,11.03
2018-03-29T18:24:51.183Z,10.20
2018-03-29T18:27:18.956Z,10.13
2018-03-29T18:29:46.769Z,9.20
2018-03-29T18:32:14.333Z,8.77
2018-03-29T18:34:41.888Z,9.30
2018-03-29T18:37:09.417Z,9.00
2018-03-29T18:39:36.938Z,8.47
2018-03-29T18:42:04.458Z,7.60
2018-03-29T18:44:31.971Z,7.97
2018-03-29T18:46:59.534Z,6.73
2018-03-29T18:49:27.190Z,6.80
2018-03-29T18:51:54.705Z,6.17
2018-03-29T18:54:22.252Z,6.10
2018-03-29T18:56:49.769Z,6.77
2018-03-29T18:59:17.304Z,6.20
2018-03-29T19:01:45.057Z,7.80
2018-03-29T19:04:12.595Z,8.80
2018-03-29T19:06:40.127Z,6.50
2018-03-29T19:09:07.874Z,6.33
2018-03-29T19:11:35.395Z,6.43
2018-03-29T19:14:02.997Z,6.80
2018-03-29T19:16:30.536Z,7.10
2018-03-29T19:18:58.081Z,6.60
2018-03-29T19:21:25.610Z,6.90
2018-03-29T19:23:53.164Z,6.43
2018-03-29T19:26:20.795Z,6.03
2018-03-29T19:28:48.337Z,6.73
2018-03-29T19:31:15.862Z,6.60
2018-03-29T19:33:43.401Z,6.57
2018-03-29T19:36:10.930Z,6.87
2018-03-29T19:38:38.457Z,7.07
2018-03-29T19:41:06.322Z,6.97
2018-03-29T19:43:33.839Z,7.33
2018-03-29T19:46:01.377Z,7.67
2018-03-29T19:48:28.933Z,8.00
2018-03-29T19:50:56.465Z,7.47
2018-03-29T19:53:23.991Z,7.17
2018-03-29T19:55:51.713Z,7.50
2018-03-29T19:58:19.271Z,6.90
2018-03-29T20:00:46.797Z,7.57
2018-03-29T20:03:14.346Z,7.40
2018-03-29T20:05:41.916Z,8.03
2018-03-29T20:08:09.743Z,8.77
2018-03-29T20:10:37.271Z,8.90
2018-03-29T20:13:05.792Z,8.80
2018-03-29T20:15:34.738Z,9.60
2018-03-29T20:18:02.413Z,10.07
2018-03-29T20:20:29.907Z,9.70
2018-03-29T20:22:57.434Z,9.90
2018-03-29T20:25:25.658Z,9.70
2018-03-29T20:27:53.238Z,10.03
2018-03-29T20:30:20.813Z,8.90
2018-03-29T20:32:48.341Z,10.67
2018-03-29T20:35:16.210Z,9.30
2018-03-29T20:37:43.787Z,9.47
2018-03-29T20:40:11.422Z,9.77
2018-03-29T20:42:39.198Z,9.70
2018-03-29T20:45:06.729Z,9.87
2018-03-29T20:47:34.259Z,8.83
2018-03-29T20:50:01.789Z,9.30
2018-03-29T20:52:29.318Z,8.60
2018-03-29T20:54:56.864Z,8.73
2018-03-29T20:57:25.258Z,9.37
2018-03-29T20:59:52.779Z,8.30
2018-03-29T21:02:21.846Z,8.20
2018-03-29T21:04:49.845Z,8.83
2018-03-29T21:07:17.373Z,7.80
2018-03-29T21:09:45.172Z,7.57
2018-03-29T21:12:13.309Z,8.30
2018-03-29T21:14:40.833Z,8.83
2018-03-29T21:17:08.955Z,8.33
2018-03-29T21:19:36.523Z,8.33
2018-03-29T21:22:04.019Z,7.90
2018-03-29T21:24:33.058Z,8.17
2018-03-29T21:27:00.580Z,8.03
2018-03-29T21:29:28.106Z,8.70
2018-03-29T21:31:55.639Z,7.90
2018-03-29T21:34:23.157Z,8.23
2018-03-29T21:36:50.694Z,7.83
2018-03-29T21:39:18.235Z,8.57
2018-03-29T21:41:46.490Z,8.67
2018-03-29T21:44:14.515Z,9.00
2018-03-29T21:46:42.056Z,8.93
2018-03-29T21:49:09.592Z,9.23
2018-03-29T21:51:37.169Z,9.63
2018-03-29T21:54:04.694Z,9.07
2018-03-29T21:56:32.565Z,9.10
2018-03-29T21:59:00.577Z,9.63
2018-03-29T22:01:29.017Z,8.63
2018-03-29T22:03:56.572Z,9.37
2018-03-29T22:06:24.117Z,8.73
2018-03-29T22:08:51.641Z,8.73
2018-03-29T22:11:19.774Z,10.07
2018-03-29T22:13:49.115Z,10.33
2018-03-29T22:16:16.653Z,10.23
2018-03-29T22:18:44.194Z,10.40
2018-03-29T22:21:11.744Z,10.47
2018-03-29T22:23:39.274Z,10.20
2018-03-29T22:26:06.802Z,10.67
2018-03-29T22:28:34.328Z,10.03
2018-03-29T22:31:01.855Z,10.17
2018-03-29T22:33:29.956Z,9.00
2018-03-29T22:35:57.515Z,10.20
2018-03-29T22:38:25.052Z,9.90
2018-03-29T22:40:52.579Z,10.17
2018-03-29T22:43:20.103Z,9.47
2018-03-29T22:45:47.647Z,10.00
2018-03-29T22:48:15.173Z,9.70
2018-03-29T22:50:42.966Z,9.83
2018-03-29T22:53:10.491Z,9.87
2018-03-29T22:55:38.017Z,9.30
2018-03-29T22:58:05.528Z,9.80
2018-03-29T23:00:35.040Z,9.87
2018-03-29T23:03:02.561Z,10.17
2018-03-29T23:05:30.079Z,10.57
2018-03-29T23:07:57.745Z,10.40
2018-03-29T23:10:25.269Z,10.17
2018-03-29T23:12:54.238Z,10.40
2018-03-29T23:15:21.772Z,9.60
2018-03-29T23:17:49.302Z,10.57
2018-03-29T23:20:16.837Z,10.70
2018-03-29T23:22:44.392Z,10.27
2018-03-29T23:25:11.926Z,10.80
2018-03-29T23:27:39.465Z,10.43
2018-03-29T23:30:06.995Z,11.03
2018-03-29T23:32:34.515Z,10.30
2018-03-29T23:35:03.820Z,11.13
2018-03-29T23:37:31.363Z,11.17
2018-03-29T23:39:58.880Z,11.23
2018-03-29T23:42:26.404Z,11.40
2018-03-29T23:44:53.932Z,11.23
2018-03-29T23:47:21.458Z,11.20
2018-03-29T23:49:48.980Z,11.13
2018-03-29T23:52:16.532Z,10.27
2018-03-29T23:54:44.084Z,10.57
2018-03-29T23:57:11.623Z,10.80
2018-03-29T23:59:39.153Z,9.87
